Time;durP1;ratioP1;P1;durP2;ratioP2;P2;SDS_P1;SDS_P2;PMS_P1;PMS_P2;Temp;Humidity;BMP_temperature;BMP_pressure;BME280_temperature;BME280_humidity;BME280_pressure;Samples;Min_cycle;Max_cycle;Signal;HPM_P1;HPM_P2
2021/10/11 00:02:09;;;;;;;12.60;2.63;;;11.00;99.90;;;;;;4993834;28;20109;-81
2021/10/11 00:04:34;;;;;;;18.13;2.70;;;11.10;99.90;;;;;;4977446;28;20042;-80
2021/10/11 00:07:00;;;;;;;21.83;3.17;;;11.00;99.90;;;;;;4993885;28;20104;-82
2021/10/11 00:09:26;;;;;;;18.98;2.97;;;11.00;99.90;;;;;;4976525;28;20067;-82
2021/10/11 00:11:52;;;;;;;16.15;2.70;;;11.10;99.90;;;;;;4978098;28;20116;-82
2021/10/11 00:14:18;;;;;;;12.35;2.63;;;11.10;99.90;;;;;;5006873;28;20044;-82
2021/10/11 00:16:43;;;;;;;19.75;2.80;;;11.10;99.90;;;;;;4978078;28;20047;-77
2021/10/11 00:19:09;;;;;;;11.95;2.60;;;11.10;99.90;;;;;;4993854;28;20229;-80
2021/10/11 00:21:35;;;;;;;15.02;2.85;;;11.20;99.90;;;;;;4994334;28;20034;-81
2021/10/11 00:24:00;;;;;;;16.08;2.60;;;11.20;99.90;;;;;;4976558;28;20129;-80
2021/10/11 00:26:26;;;;;;;20.15;2.63;;;11.30;99.90;;;;;;4995158;28;20042;-83
2021/10/11 00:28:52;;;;;;;13.32;2.40;;;11.30;99.90;;;;;;4978281;28;20148;-78
2021/10/11 00:31:18;;;;;;;13.50;2.53;;;11.30;99.90;;;;;;4993691;28;20117;-79
2021/10/11 00:33:43;;;;;;;15.45;2.33;;;11.30;99.90;;;;;;4992618;28;20164;-82
2021/10/11 00:36:09;;;;;;;14.73;2.90;;;11.20;99.90;;;;;;4993099;28;20049;-84
2021/10/11 00:38:35;;;;;;;19.70;2.88;;;11.20;99.90;;;;;;4977476;28;20104;-83
2021/10/11 00:41:00;;;;;;;13.77;2.70;;;11.30;99.90;;;;;;4976526;28;20132;-80
2021/10/11 00:43:27;;;;;;;15.90;2.75;;;11.10;99.90;;;;;;4976316;28;20045;-83
2021/10/11 00:45:52;;;;;;;14.05;2.60;;;11.10;99.90;;;;;;4977144;28;20137;-82
2021/10/11 00:48:18;;;;;;;18.60;2.85;;;11.10;99.90;;;;;;4993616;28;20128;-80
2021/10/11 00:50:44;;;;;;;15.05;2.97;;;11.00;99.90;;;;;;4992247;28;20500;-81
2021/10/11 00:53:10;;;;;;;13.48;2.72;;;11.00;99.90;;;;;;4984447;28;20860;-79
2021/10/11 00:55:36;;;;;;;16.50;2.40;;;11.00;99.90;;;;;;4986779;28;20034;-83
2021/10/11 00:58:02;;;;;;;20.13;2.90;;;11.00;99.90;;;;;;4993635;28;20552;-81
2021/10/11 01:00:28;;;;;;;15.27;2.78;;;11.20;99.90;;;;;;4974253;28;20058;-84
2021/10/11 01:02:54;;;;;;;23.65;3.22;;;10.90;99.90;;;;;;4985369;28;20042;-83
2021/10/11 01:05:20;;;;;;;17.45;2.50;;;10.90;99.90;;;;;;4993210;28;20038;-80
2021/10/11 01:07:46;;;;;;;15.40;2.92;;;10.90;99.90;;;;;;4994743;28;20061;-82
2021/10/11 01:10:12;;;;;;;12.60;2.55;;;10.80;99.90;;;;;;5004710;28;20042;-80
2021/10/11 01:12:38;;;;;;;13.43;2.55;;;10.80;99.90;;;;;;4978470;28;20057;-82
2021/10/11 01:15:04;;;;;;;15.13;2.72;;;10.80;99.90;;;;;;4992301;28;20089;-82
2021/10/11 01:17:30;;;;;;;17.52;3.08;;;10.80;99.90;;;;;;4992672;28;20088;-84
2021/10/11 01:19:57;;;;;;;20.95;2.92;;;10.70;99.90;;;;;;4988890;28;20104;-80
2021/10/11 01:22:36;;;;;;;15.75;2.53;;;10.80;99.90;;;;;;4974558;28;20500;-82
2021/10/11 01:25:03;;;;;;;17.27;2.72;;;10.70;99.90;;;;;;5000396;28;20080;-81
2021/10/11 01:27:28;;;;;;;16.73;2.45;;;10.70;99.90;;;;;;4970395;28;20039;-82
2021/10/11 01:29:57;;;;;;;15.07;2.45;;;10.60;99.90;;;;;;4983056;28;20065;-80
2021/10/11 01:32:23;;;;;;;13.13;2.80;;;10.60;99.90;;;;;;4974836;28;20038;-78
2021/10/11 01:34:49;;;;;;;19.00;2.65;;;10.50;99.90;;;;;;4986508;28;20041;-80
2021/10/11 01:37:15;;;;;;;10.75;2.30;;;10.40;99.90;;;;;;5009985;28;20092;-82
2021/10/11 01:39:41;;;;;;;15.35;2.60;;;10.50;99.90;;;;;;4988481;28;20054;-81
2021/10/11 01:42:07;;;;;;;14.43;2.65;;;10.40;99.90;;;;;;4988620;28;20049;-81
2021/10/11 01:44:33;;;;;;;19.23;3.05;;;10.40;99.90;;;;;;4993279;28;20061;-80
2021/10/11 01:46:59;;;;;;;12.50;2.25;;;10.40;99.90;;;;;;4986779;28;20030;-82
2021/10/11 01:49:25;;;;;;;17.50;2.53;;;10.50;99.90;;;;;;4985775;28;20038;-80
2021/10/11 01:51:51;;;;;;;15.18;2.60;;;10.40;99.90;;;;;;4988016;28;20042;-82
2021/10/11 01:54:19;;;;;;;12.18;2.30;;;10.30;99.90;;;;;;4985309;28;20042;-76
2021/10/11 01:56:45;;;;;;;11.05;1.85;;;10.20;99.90;;;;;;4957582;28;20096;-82
2021/10/11 01:59:11;;;;;;;14.25;2.45;;;10.20;99.90;;;;;;5010524;28;20398;-85
2021/10/11 02:01:36;;;;;;;9.15;2.13;;;10.10;99.90;;;;;;4975102;28;20077;-78
2021/10/11 02:04:02;;;;;;;17.63;2.17;;;10.10;99.90;;;;;;4975062;28;20049;-80
2021/10/11 02:06:28;;;;;;;18.48;2.42;;;10.20;99.90;;;;;;4975271;28;20525;-83
2021/10/11 02:08:53;;;;;;;16.98;2.85;;;10.10;99.90;;;;;;4987344;28;20040;-80
2021/10/11 02:11:19;;;;;;;19.58;2.25;;;10.10;99.90;;;;;;4988167;28;20101;-82
2021/10/11 02:13:45;;;;;;;15.23;2.42;;;10.10;99.90;;;;;;5004155;28;20458;-80
2021/10/11 02:16:10;;;;;;;15.40;2.60;;;10.10;99.90;;;;;;4992595;28;20132;-79
2021/10/11 02:18:36;;;;;;;16.08;2.53;;;10.10;99.90;;;;;;4997053;28;20493;-82
2021/10/11 02:21:02;;;;;;;18.92;2.28;;;10.10;99.90;;;;;;4991439;28;20045;-81
2021/10/11 02:23:27;;;;;;;17.52;2.60;;;10.10;99.90;;;;;;4991276;28;20045;-81
2021/10/11 02:25:53;;;;;;;18.17;2.50;;;10.00;99.90;;;;;;4991901;28;20773;-82
2021/10/11 02:28:20;;;;;;;18.60;2.28;;;10.00;99.90;;;;;;4978600;28;20120;-84
2021/10/11 02:30:46;;;;;;;13.88;2.00;;;9.90;99.90;;;;;;4990206;28;20095;-80
2021/10/11 02:33:12;;;;;;;12.95;2.40;;;9.90;99.90;;;;;;4967109;28;20054;-80
2021/10/11 02:35:37;;;;;;;19.20;2.53;;;9.90;99.90;;;;;;4989767;28;20061;-81
2021/10/11 02:38:03;;;;;;;14.43;2.20;;;9.90;99.90;;;;;;4990216;28;20141;-78
2021/10/11 02:40:29;;;;;;;22.65;2.70;;;9.90;99.90;;;;;;4990769;28;20046;-79
2021/10/11 02:42:54;;;;;;;17.77;2.30;;;9.90;99.90;;;;;;4991615;28;20125;-83
2021/10/11 02:45:20;;;;;;;18.75;2.80;;;9.90;99.90;;;;;;4973182;28;20078;-81
2021/10/11 02:47:46;;;;;;;13.32;2.65;;;9.90;99.90;;;;;;4990915;28;20086;-80
2021/10/11 02:50:12;;;;;;;10.10;2.10;;;9.90;99.90;;;;;;4974323;28;20080;-80
2021/10/11 02:52:37;;;;;;;16.52;2.72;;;9.90;99.90;;;;;;4986105;28;20053;-80
2021/10/11 02:55:04;;;;;;;12.68;2.50;;;9.90;99.90;;;;;;4989369;28;20038;-82
2021/10/11 02:57:30;;;;;;;9.98;1.95;;;9.90;99.90;;;;;;4989930;28;20088;-82
2021/10/11 02:59:56;;;;;;;18.77;2.53;;;10.00;99.90;;;;;;4989365;28;20448;-79
2021/10/11 03:02:22;;;;;;;18.05;2.35;;;10.30;99.90;;;;;;4975575;28;20029;-78
2021/10/11 03:04:49;;;;;;;13.00;1.98;;;9.90;99.90;;;;;;4990302;28;20034;-79
2021/10/11 03:07:18;;;;;;;13.90;2.38;;;9.90;99.90;;;;;;4986738;28;20048;-85
2021/10/11 03:09:44;;;;;;;8.48;1.70;;;9.90;99.90;;;;;;4988385;28;20404;-81
2021/10/11 03:12:10;;;;;;;13.85;2.22;;;9.90;99.90;;;;;;4988966;28;20059;-80
2021/10/11 03:14:35;;;;;;;19.55;2.55;;;9.90;99.90;;;;;;4962449;28;20117;-80
2021/10/11 03:17:01;;;;;;;14.73;2.25;;;9.90;99.90;;;;;;4976334;28;20489;-85
2021/10/11 03:19:27;;;;;;;18.00;2.30;;;9.90;99.90;;;;;;4974437;28;20074;-79
2021/10/11 03:21:53;;;;;;;20.23;3.03;;;9.90;99.90;;;;;;4989881;28;20477;-78
2021/10/11 03:24:18;;;;;;;16.10;2.08;;;9.90;99.90;;;;;;4974408;28;20046;-82
2021/10/11 03:26:44;;;;;;;14.95;1.90;;;10.00;99.90;;;;;;4977427;28;20486;-81
2021/10/11 03:29:10;;;;;;;14.18;2.00;;;10.00;99.90;;;;;;4991001;28;20046;-82
2021/10/11 03:31:36;;;;;;;12.85;2.00;;;10.10;99.90;;;;;;4990603;28;20092;-81
2021/10/11 03:34:01;;;;;;;16.45;2.72;;;10.00;99.90;;;;;;4974614;28;20056;-79
2021/10/11 03:36:27;;;;;;;14.02;2.35;;;10.00;99.90;;;;;;4989369;28;20036;-81
2021/10/11 03:38:53;;;;;;;13.30;2.10;;;10.00;99.90;;;;;;4992671;28;20062;-81
2021/10/11 03:41:19;;;;;;;10.25;2.25;;;10.00;99.90;;;;;;4986819;28;20220;-82
2021/10/11 03:43:44;;;;;;;14.10;2.58;;;10.00;99.90;;;;;;4975085;28;20377;-85
2021/10/11 03:46:10;;;;;;;11.32;2.03;;;10.10;99.90;;;;;;4975123;28;20760;-78
2021/10/11 03:48:36;;;;;;;13.02;2.50;;;10.00;99.90;;;;;;4988964;28;20034;-78
2021/10/11 03:51:01;;;;;;;18.10;2.45;;;9.90;99.90;;;;;;4987001;28;20315;-83
2021/10/11 03:53:27;;;;;;;20.70;2.30;;;9.90;99.90;;;;;;5005421;28;20064;-81
2021/10/11 03:55:53;;;;;;;18.80;2.10;;;9.90;99.90;;;;;;4971474;28;20071;-82
2021/10/11 03:58:19;;;;;;;11.02;2.30;;;9.90;99.90;;;;;;4977043;28;20473;-83
2021/10/11 04:00:44;;;;;;;16.80;2.28;;;9.90;99.90;;;;;;4998144;28;20048;-82
2021/10/11 04:03:10;;;;;;;23.77;2.42;;;9.90;99.90;;;;;;4977516;28;20137;-84
2021/10/11 04:05:36;;;;;;;13.45;2.25;;;9.90;99.90;;;;;;4983331;28;20453;-80
2021/10/11 04:08:10;;;;;;;16.77;2.13;;;9.90;99.90;;;;;;4992861;28;20244;-86
2021/10/11 04:10:42;;;;;;;16.63;2.65;;;9.90;99.90;;;;;;4980355;28;20046;-83
2021/10/11 04:13:07;;;;;;;15.60;2.72;;;9.90;99.90;;;;;;4978731;28;20141;-84
2021/10/11 04:15:33;;;;;;;19.33;2.85;;;10.40;99.90;;;;;;5008218;28;20124;-82
2021/10/11 04:17:59;;;;;;;15.93;2.35;;;10.00;99.90;;;;;;4996124;28;20509;-82
2021/10/11 04:20:24;;;;;;;18.70;2.88;;;10.50;99.90;;;;;;4976750;28;20049;-80
2021/10/11 04:22:50;;;;;;;12.82;1.98;;;10.00;99.90;;;;;;4979115;28;20540;-82
2021/10/11 04:25:16;;;;;;;18.25;2.33;;;10.00;99.90;;;;;;4992245;28;20067;-81
2021/10/11 04:27:42;;;;;;;15.30;2.22;;;10.20;99.90;;;;;;5013838;28;20065;-82
2021/10/11 04:30:09;;;;;;;18.92;2.33;;;10.60;99.90;;;;;;4979914;28;20124;-78
2021/10/11 04:32:34;;;;;;;22.08;2.78;;;10.00;99.90;;;;;;4977883;28;20418;-79
2021/10/11 04:35:00;;;;;;;17.40;2.70;;;10.00;99.90;;;;;;4976147;28;20216;-83
2021/10/11 04:37:26;;;;;;;15.10;2.35;;;10.00;99.90;;;;;;4977764;28;20044;-83
2021/10/11 04:39:52;;;;;;;16.35;2.60;;;10.00;99.90;;;;;;4958503;28;20501;-81
2021/10/11 04:42:19;;;;;;;14.93;2.20;;;10.10;99.90;;;;;;4978461;28;20434;-79
2021/10/11 04:44:45;;;;;;;19.35;2.72;;;10.00;99.90;;;;;;4983770;28;20034;-79
2021/10/11 04:47:11;;;;;;;20.92;3.10;;;10.10;99.90;;;;;;4992263;28;20030;-83
2021/10/11 04:49:36;;;;;;;14.35;2.42;;;10.30;99.90;;;;;;4978666;28;20033;-78
2021/10/11 04:52:05;;;;;;;19.58;2.70;;;10.10;99.90;;;;;;4977620;28;20512;-83
2021/10/11 04:54:30;;;;;;;23.05;2.45;;;10.20;99.90;;;;;;4992887;28;20035;-79
2021/10/11 04:56:56;;;;;;;21.88;2.20;;;10.10;99.90;;;;;;4978246;28;20468;-81
2021/10/11 04:59:22;;;;;;;13.65;1.90;;;10.10;99.90;;;;;;4999227;28;20049;-80
2021/10/11 05:01:47;;;;;;;16.75;2.53;;;10.00;99.90;;;;;;4998836;28;20168;-80
2021/10/11 05:04:13;;;;;;;20.52;2.60;;;10.00;99.90;;;;;;4996272;28;20124;-82
2021/10/11 05:06:39;;;;;;;19.63;2.45;;;10.00;99.90;;;;;;4980716;28;20075;-80
2021/10/11 05:09:23;;;;;;;22.67;3.10;;;10.00;99.90;;;;;;4994993;28;20106;-78
2021/10/11 05:11:49;;;;;;;22.92;2.63;;;10.10;99.90;;;;;;5012129;28;20034;-82
2021/10/11 05:14:15;;;;;;;15.07;2.60;;;10.10;99.90;;;;;;4991960;28;20133;-79
2021/10/11 05:16:40;;;;;;;27.35;3.00;;;10.10;99.90;;;;;;4974872;28;20073;-81
2021/10/11 05:19:06;;;;;;;19.75;3.08;;;10.10;99.90;;;;;;4991523;28;20057;-81
2021/10/11 05:21:32;;;;;;;22.40;2.97;;;10.10;99.90;;;;;;4984803;28;20445;-75
2021/10/11 05:23:58;;;;;;;30.60;3.80;;;10.10;99.90;;;;;;5007651;28;20137;-85
2021/10/11 05:26:26;;;;;;;16.70;2.47;;;10.10;99.90;;;;;;4960023;28;20472;-83
2021/10/11 05:28:53;;;;;;;16.10;2.55;;;10.10;99.90;;;;;;4994082;28;20037;-82
2021/10/11 05:31:18;;;;;;;19.95;2.88;;;10.10;99.90;;;;;;4962706;28;20037;-80
2021/10/11 05:33:44;;;;;;;21.45;3.20;;;10.10;99.90;;;;;;4975605;28;20162;-80
2021/10/11 05:36:10;;;;;;;30.52;3.13;;;10.10;99.90;;;;;;4992763;28;20057;-79
2021/10/11 05:38:36;;;;;;;25.13;3.22;;;10.10;99.90;;;;;;4987848;28;20033;-80
2021/10/11 05:41:01;;;;;;;22.48;3.35;;;10.10;99.90;;;;;;4982197;28;20073;-80
2021/10/11 05:43:27;;;;;;;18.20;2.92;;;10.10;99.90;;;;;;4989512;28;20354;-83
2021/10/11 05:45:53;;;;;;;24.92;2.97;;;10.10;99.90;;;;;;4989774;28;20359;-79
2021/10/11 05:48:18;;;;;;;17.38;3.15;;;10.10;99.90;;;;;;4974622;28;20045;-80
2021/10/11 05:50:48;;;;;;;20.63;3.20;;;10.10;99.90;;;;;;4990141;28;20044;-80
2021/10/11 05:53:13;;;;;;;22.08;2.83;;;10.10;99.90;;;;;;4975862;28;20109;-83
2021/10/11 05:55:39;;;;;;;19.23;3.38;;;10.10;99.90;;;;;;4976167;28;20082;-80
2021/10/11 05:58:04;;;;;;;22.50;2.75;;;10.10;99.90;;;;;;4975451;28;20056;-80
2021/10/11 06:00:30;;;;;;;21.45;2.90;;;10.00;99.90;;;;;;4989739;28;20132;-79
2021/10/11 06:02:56;;;;;;;20.45;3.00;;;10.00;99.90;;;;;;4989512;28;20042;-82
2021/10/11 06:05:22;;;;;;;18.13;2.80;;;10.10;99.90;;;;;;4989149;28;20029;-82
2021/10/11 06:07:48;;;;;;;23.08;3.08;;;10.00;99.90;;;;;;4993831;28;20049;-82
2021/10/11 06:10:13;;;;;;;18.98;3.28;;;10.00;99.90;;;;;;4976213;28;20049;-80
2021/10/11 06:12:40;;;;;;;26.05;3.58;;;10.00;99.90;;;;;;4990973;28;20438;-81
2021/10/11 06:15:06;;;;;;;22.98;3.17;;;10.00;99.90;;;;;;4976219;28;20848;-79
2021/10/11 06:17:32;;;;;;;24.02;3.65;;;10.00;99.90;;;;;;4974940;28;20523;-81
2021/10/11 06:19:58;;;;;;;20.13;2.88;;;10.00;99.90;;;;;;4988327;28;20077;-78
2021/10/11 06:22:23;;;;;;;20.83;2.67;;;10.00;99.90;;;;;;4962241;28;20108;-85
2021/10/11 06:24:49;;;;;;;18.25;2.50;;;10.00;99.90;;;;;;4990138;28;20126;-82
2021/10/11 06:27:15;;;;;;;29.88;3.40;;;10.00;99.90;;;;;;4992112;28;20033;-80
2021/10/11 06:29:40;;;;;;;20.45;3.38;;;10.10;99.90;;;;;;4991835;28;20037;-83
2021/10/11 06:32:06;;;;;;;21.92;2.92;;;10.10;99.90;;;;;;4974230;28;20037;-80
2021/10/11 06:34:32;;;;;;;19.13;2.80;;;10.10;99.90;;;;;;4984375;28;20073;-77
2021/10/11 06:36:58;;;;;;;17.27;3.10;;;10.10;99.90;;;;;;4990894;28;20046;-84
2021/10/11 06:39:24;;;;;;;27.33;3.38;;;10.10;99.90;;;;;;4991971;28;20049;-82
2021/10/11 06:41:49;;;;;;;26.05;3.40;;;10.20;99.90;;;;;;4974773;28;20042;-83
2021/10/11 06:44:16;;;;;;;23.90;3.80;;;10.10;99.90;;;;;;4991367;28;20124;-83
2021/10/11 06:46:41;;;;;;;21.85;3.25;;;10.30;99.90;;;;;;4991614;28;20175;-81
2021/10/11 06:49:07;;;;;;;22.77;3.53;;;10.30;99.90;;;;;;4976731;28;20053;-87
2021/10/11 06:51:33;;;;;;;20.00;3.13;;;10.30;99.90;;;;;;4995690;28;20034;-80
2021/10/11 06:53:58;;;;;;;19.42;3.20;;;10.30;99.90;;;;;;4991417;28;20061;-84
2021/10/11 06:56:24;;;;;;;20.85;3.47;;;10.40;99.90;;;;;;4992431;28;20046;-84
2021/10/11 06:58:49;;;;;;;21.90;3.58;;;10.40;99.90;;;;;;4976630;28;20058;-82
2021/10/11 07:01:15;;;;;;;23.08;3.70;;;10.50;99.90;;;;;;4999921;28;20060;-85
2021/10/11 07:03:41;;;;;;;18.80;3.45;;;10.60;99.90;;;;;;4961046;28;20482;-81
2021/10/11 07:06:07;;;;;;;23.13;3.28;;;10.70;99.90;;;;;;4981923;28;20054;-83
2021/10/11 07:08:34;;;;;;;13.55;2.58;;;10.70;99.90;;;;;;4993959;28;20041;-84
2021/10/11 07:11:00;;;;;;;20.92;3.17;;;10.90;99.90;;;;;;4975628;28;20156;-84
2021/10/11 07:13:26;;;;;;;18.50;2.65;;;10.90;99.90;;;;;;4975402;28;20105;-78
2021/10/11 07:15:52;;;;;;;16.58;2.40;;;11.00;99.90;;;;;;4982836;28;20137;-85
2021/10/11 07:18:18;;;;;;;21.25;2.95;;;11.20;99.90;;;;;;5011932;28;20080;-82
2021/10/11 07:20:45;;;;;;;18.50;2.53;;;11.10;99.90;;;;;;5007102;28;20042;-81
2021/10/11 07:23:14;;;;;;;16.58;2.45;;;11.20;99.90;;;;;;4991716;28;20196;-83
2021/10/11 07:25:41;;;;;;;10.88;2.10;;;11.30;99.90;;;;;;5007743;28;20064;-87
2021/10/11 07:28:07;;;;;;;11.23;2.00;;;11.40;99.90;;;;;;5007718;28;20090;-84
2021/10/11 07:30:33;;;;;;;15.23;2.72;;;11.60;99.90;;;;;;4993533;28;20090;-80
2021/10/11 07:33:00;;;;;;;12.48;2.38;;;11.70;99.90;;;;;;4990969;28;20754;-80
2021/10/11 07:35:27;;;;;;;10.82;2.25;;;11.70;99.90;;;;;;4969332;28;20454;-80
2021/10/11 07:37:53;;;;;;;16.00;2.45;;;11.80;99.90;;;;;;4970316;28;20050;-81
2021/10/11 07:40:21;;;;;;;13.35;1.80;;;11.90;99.90;;;;;;4994593;28;20388;-81
2021/10/11 07:42:47;;;;;;;10.75;2.10;;;11.90;99.90;;;;;;4991347;28;20055;-82
2021/10/11 07:45:13;;;;;;;9.93;1.67;;;11.90;99.90;;;;;;4979458;28;20042;-79
2021/10/11 07:47:39;;;;;;;8.38;1.70;;;11.90;99.90;;;;;;4995288;28;20046;-83
2021/10/11 07:50:05;;;;;;;11.15;1.52;;;11.90;99.90;;;;;;4993682;28;20084;-81
2021/10/11 07:52:31;;;;;;;8.07;1.65;;;11.90;99.90;;;;;;5008868;28;20105;-78
2021/10/11 07:54:56;;;;;;;11.23;1.92;;;11.90;99.90;;;;;;5011328;28;20073;-80
2021/10/11 07:57:22;;;;;;;11.88;1.95;;;11.90;99.90;;;;;;4994164;28;20109;-81
2021/10/11 07:59:47;;;;;;;13.98;2.08;;;12.00;99.90;;;;;;5010712;28;20058;-84
2021/10/11 08:02:13;;;;;;;13.20;1.77;;;12.00;99.90;;;;;;4993578;28;20477;-81
2021/10/11 08:04:39;;;;;;;15.90;2.67;;;12.10;99.90;;;;;;4991063;28;20121;-80
2021/10/11 08:07:04;;;;;;;10.18;2.10;;;12.10;99.90;;;;;;5001215;28;20042;-80
2021/10/11 08:09:30;;;;;;;14.63;2.42;;;12.20;99.90;;;;;;5009583;28;20050;-82
2021/10/11 08:11:55;;;;;;;12.50;2.17;;;12.20;99.90;;;;;;4991074;28;20543;-82
2021/10/11 08:14:21;;;;;;;17.55;2.40;;;12.20;99.90;;;;;;4992341;28;20397;-83
2021/10/11 08:16:47;;;;;;;14.50;2.45;;;12.30;99.90;;;;;;4995135;28;20517;-81
2021/10/11 08:19:13;;;;;;;18.58;2.70;;;12.30;99.90;;;;;;4989500;28;20081;-81
2021/10/11 08:21:39;;;;;;;14.20;2.58;;;12.40;99.90;;;;;;4999145;28;20088;-83
2021/10/11 08:24:05;;;;;;;14.80;1.98;;;12.50;99.90;;;;;;4989802;28;20092;-82
2021/10/11 08:26:34;;;;;;;18.50;2.72;;;12.60;99.90;;;;;;4974990;28;20472;-82
2021/10/11 08:29:03;;;;;;;14.13;2.15;;;12.60;99.90;;;;;;4991106;28;20037;-82
2021/10/11 08:31:30;;;;;;;18.30;2.53;;;12.60;99.90;;;;;;4994866;28;20049;-83
2021/10/11 08:33:55;;;;;;;18.63;2.53;;;12.60;99.90;;;;;;4991849;28;20429;-80
2021/10/11 08:36:21;;;;;;;22.65;2.65;;;12.70;99.90;;;;;;4990821;28;20098;-81
2021/10/11 08:38:46;;;;;;;19.48;2.15;;;12.70;99.90;;;;;;4990771;28;20050;-81
2021/10/11 08:41:12;;;;;;;21.05;2.75;;;12.80;99.90;;;;;;4994451;28;20436;-81
2021/10/11 08:43:39;;;;;;;12.25;2.35;;;12.90;99.90;;;;;;4979997;28;20045;-81
2021/10/11 08:46:06;;;;;;;17.02;2.58;;;12.90;99.90;;;;;;4991746;28;20046;-81
2021/10/11 08:48:33;;;;;;;13.02;2.63;;;13.00;99.90;;;;;;4991308;28;20041;-81
2021/10/11 08:51:00;;;;;;;12.10;2.25;;;13.00;99.90;;;;;;4991489;28;20045;-80
2021/10/11 08:53:26;;;;;;;19.25;2.83;;;13.20;99.90;;;;;;4985290;28;20060;-80
2021/10/11 08:55:58;;;;;;;21.13;3.10;;;13.10;99.90;;;;;;4992664;28;20144;-81
2021/10/11 08:58:23;;;;;;;18.85;2.83;;;13.10;99.90;;;;;;4977165;28;20038;-80
2021/10/11 09:00:49;;;;;;;23.90;2.90;;;13.10;99.90;;;;;;4993257;28;20378;-80
2021/10/11 09:03:19;;;;;;;13.75;2.47;;;13.10;99.90;;;;;;5007840;28;20050;-80
2021/10/11 09:05:52;;;;;;;13.95;2.58;;;13.20;99.90;;;;;;4984134;28;20116;-82
2021/10/11 09:08:19;;;;;;;18.85;2.85;;;13.30;99.90;;;;;;4991827;28;20092;-82
2021/10/11 09:11:31;;;;;;;20.05;2.38;;;13.30;99.90;;;;;;5008785;28;20117;-84
2021/10/11 09:13:57;;;;;;;19.88;2.45;;;13.40;99.90;;;;;;4998307;28;20054;-81
2021/10/11 09:18:56;;;;;;;18.08;3.17;;;13.40;99.90;;;;;;4991741;28;20064;-83
2021/10/11 09:21:32;;;;;;;20.10;2.15;;;13.40;99.90;;;;;;4993180;28;20482;-82
2021/10/11 09:24:11;;;;;;;17.42;2.22;;;13.50;99.90;;;;;;4977991;28;20053;-82
2021/10/11 09:26:50;;;;;;;15.30;2.30;;;13.50;99.90;;;;;;4984344;28;20118;-81
2021/10/11 09:29:26;;;;;;;14.30;2.20;;;13.60;99.90;;;;;;4975887;28;20044;-82
2021/10/11 09:31:52;;;;;;;19.23;2.38;;;13.80;99.90;;;;;;4975507;28;20046;-80
2021/10/11 09:34:20;;;;;;;10.85;2.20;;;13.90;99.90;;;;;;4991715;28;20046;-81
2021/10/11 09:37:01;;;;;;;13.88;2.28;;;14.00;99.90;;;;;;4976240;28;20177;-79
2021/10/11 09:42:17;;;;;;;21.05;2.65;;;14.20;99.90;;;;;;4992610;28;20048;-82
2021/10/11 09:44:53;;;;;;;9.38;1.70;;;14.40;99.90;;;;;;4992143;28;20050;-81
2021/10/11 09:47:30;;;;;;;17.75;2.15;;;14.30;99.90;;;;;;4991437;28;20203;-79
2021/10/11 09:49:56;;;;;;;11.00;2.03;;;14.50;99.90;;;;;;4983274;28;20140;-76
2021/10/11 09:52:23;;;;;;;20.30;2.53;;;14.60;99.90;;;;;;4983412;28;20042;-79
2021/10/11 09:54:49;;;;;;;17.85;2.30;;;14.70;99.90;;;;;;4990405;28;20184;-81
2021/10/11 09:57:15;;;;;;;11.65;1.90;;;14.80;99.90;;;;;;4977015;28;20176;-80
2021/10/11 09:59:44;;;;;;;12.90;1.92;;;14.90;99.90;;;;;;4975226;28;20041;-79
2021/10/11 10:02:10;;;;;;;14.02;2.30;;;15.00;99.90;;;;;;4987150;28;20065;-81
2021/10/11 10:04:40;;;;;;;13.00;1.88;;;15.10;99.90;;;;;;4976066;28;20045;-79
2021/10/11 10:07:09;;;;;;;13.93;2.58;;;15.10;99.90;;;;;;4993499;28;20492;-78
2021/10/11 10:09:39;;;;;;;23.35;2.47;;;15.10;99.90;;;;;;5012206;28;20069;-80
2021/10/11 10:12:06;;;;;;;13.70;1.90;;;15.20;99.90;;;;;;4992893;28;20050;-79
2021/10/11 10:14:33;;;;;;;15.48;2.38;;;15.40;99.90;;;;;;4976927;28;20054;-79
2021/10/11 10:16:59;;;;;;;13.45;2.00;;;15.50;99.90;;;;;;4994210;28;20054;-80
2021/10/11 10:19:40;;;;;;;9.05;1.73;;;15.60;99.90;;;;;;5013079;28;20045;-79
2021/10/11 10:22:11;;;;;;;13.00;2.03;;;15.50;99.90;;;;;;5014362;28;20044;-80
2021/10/11 10:24:38;;;;;;;12.95;2.42;;;15.30;99.90;;;;;;4993884;28;20049;-78
2021/10/11 10:27:06;;;;;;;8.15;1.75;;;15.00;99.90;;;;;;4993346;28;20053;-79
2021/10/11 10:29:49;;;;;;;11.48;2.10;;;14.90;99.90;;;;;;4977778;28;20057;-78
2021/10/11 10:32:17;;;;;;;15.07;1.92;;;14.80;99.90;;;;;;4997649;28;20485;-78
2021/10/11 10:34:58;;;;;;;14.38;1.60;;;14.70;99.90;;;;;;4992387;28;20436;-80
2021/10/11 10:37:37;;;;;;;13.52;2.17;;;14.80;99.90;;;;;;4993952;28;20084;-81
2021/10/11 10:40:08;;;;;;;12.25;1.90;;;14.90;99.90;;;;;;5008591;28;20432;-81
2021/10/11 10:42:34;;;;;;;8.50;1.65;;;14.90;99.90;;;;;;5003796;28;20716;-82
2021/10/11 10:45:01;;;;;;;8.02;1.75;;;14.80;99.90;;;;;;4992899;28;20052;-81
2021/10/11 10:47:38;;;;;;;11.82;2.05;;;14.80;99.90;;;;;;4993164;28;20469;-78
2021/10/11 10:50:24;;;;;;;12.88;1.70;;;14.80;99.90;;;;;;4992299;28;20050;-79
2021/10/11 10:52:54;;;;;;;15.40;2.03;;;14.80;99.90;;;;;;4993623;28;20054;-81
2021/10/11 10:55:21;;;;;;;13.88;2.00;;;14.80;99.90;;;;;;4977822;28;20050;-82
2021/10/11 10:57:47;;;;;;;11.52;2.13;;;14.80;99.90;;;;;;4992593;28;20505;-81
2021/10/11 11:00:17;;;;;;;14.82;2.53;;;14.80;99.90;;;;;;4992433;28;20077;-82
2021/10/11 11:02:49;;;;;;;16.30;2.08;;;14.80;99.90;;;;;;5010708;28;20653;-81
2021/10/11 11:05:17;;;;;;;5.30;1.30;;;14.60;99.90;;;;;;4992356;28;20049;-80
2021/10/11 11:07:44;;;;;;;8.48;1.75;;;14.60;99.90;;;;;;4974711;28;20049;-81
2021/10/11 11:10:26;;;;;;;11.25;1.60;;;14.60;99.90;;;;;;4972838;28;20049;-81
2021/10/11 11:12:56;;;;;;;12.38;2.05;;;14.50;99.90;;;;;;4995667;28;20056;-81
2021/10/11 11:15:37;;;;;;;13.82;2.13;;;14.60;99.90;;;;;;5008512;28;20524;-82
2021/10/11 11:18:17;;;;;;;14.18;1.90;;;14.70;99.90;;;;;;4992549;28;20150;-80
2021/10/11 11:20:44;;;;;;;13.18;1.80;;;14.80;99.90;;;;;;5009204;28;20058;-83
2021/10/11 11:23:12;;;;;;;10.85;1.30;;;15.00;99.90;;;;;;4977141;28;20121;-81
2021/10/11 11:25:43;;;;;;;14.27;1.85;;;15.20;99.90;;;;;;4980665;28;20042;-80
2021/10/11 11:28:12;;;;;;;10.15;1.73;;;15.20;99.90;;;;;;4978008;28;20105;-81
2021/10/11 11:30:38;;;;;;;9.77;1.60;;;15.00;99.90;;;;;;4982912;28;20038;-81
2021/10/11 11:33:08;;;;;;;7.70;1.40;;;14.60;99.90;;;;;;4973920;28;20046;-80
2021/10/11 11:35:36;;;;;;;7.13;1.50;;;14.20;99.90;;;;;;4979803;28;20053;-82
2021/10/11 11:38:07;;;;;;;6.20;1.00;;;14.00;99.90;;;;;;4997235;28;20374;-81
2021/10/11 11:40:39;;;;;;;4.93;1.10;;;13.80;99.90;;;;;;4996911;28;20122;-80
2021/10/11 11:43:06;;;;;;;7.20;1.20;;;14.00;99.90;;;;;;5009499;28;20061;-80
2021/10/11 11:45:47;;;;;;;8.25;1.40;;;14.10;99.90;;;;;;4979389;28;20042;-81
2021/10/11 11:48:20;;;;;;;6.47;1.17;;;14.20;99.90;;;;;;4968861;28;20564;-80
2021/10/11 11:50:52;;;;;;;11.07;1.75;;;14.40;99.90;;;;;;4994404;28;20038;-83
2021/10/11 11:53:20;;;;;;;7.85;1.58;;;14.50;99.90;;;;;;4989885;28;20041;-80
2021/10/11 11:56:06;;;;;;;8.10;1.50;;;14.40;99.90;;;;;;5017667;28;20450;-81
2021/10/11 11:58:33;;;;;;;12.23;1.77;;;14.50;99.90;;;;;;4987135;28;20081;-81
2021/10/11 12:01:02;;;;;;;9.98;1.58;;;14.60;99.90;;;;;;4979579;28;20053;-81
2021/10/11 12:03:32;;;;;;;14.70;1.70;;;14.60;99.90;;;;;;4998346;28;20133;-82
2021/10/11 12:05:59;;;;;;;11.50;1.85;;;14.80;99.90;;;;;;4993250;28;20074;-82
2021/10/11 12:08:26;;;;;;;11.88;2.08;;;15.00;99.90;;;;;;4998606;28;20473;-81
2021/10/11 12:11:03;;;;;;;9.07;1.55;;;15.30;99.90;;;;;;4978176;28;20041;-82
2021/10/11 12:13:59;;;;;;;8.82;1.63;;;15.20;99.90;;;;;;4988303;28;20053;-79
2021/10/11 12:16:26;;;;;;;10.40;1.80;;;14.80;99.90;;;;;;4988635;28;20186;-83
2021/10/11 12:18:55;;;;;;;6.53;1.38;;;14.80;99.90;;;;;;4971435;28;20042;-80
2021/10/11 12:21:30;;;;;;;8.88;1.60;;;14.70;99.90;;;;;;4978938;28;20054;-81
2021/10/11 12:24:31;;;;;;;8.55;1.38;;;14.60;99.90;;;;;;4996645;28;20105;-82
2021/10/11 12:28:20;;;;;;;6.72;1.20;;;14.50;99.90;;;;;;4995969;28;20085;-80
2021/10/11 12:30:48;;;;;;;7.07;1.90;;;14.50;99.90;;;;;;4995956;28;20096;-81
2021/10/11 12:33:17;;;;;;;10.05;1.23;;;14.70;99.90;;;;;;4978324;28;20061;-83
2021/10/11 12:35:45;;;;;;;12.98;1.48;;;14.80;99.90;;;;;;4994262;28;20081;-80
2021/10/11 12:38:15;;;;;;;6.97;1.33;;;14.80;99.90;;;;;;4978592;28;20073;-81
2021/10/11 12:40:43;;;;;;;7.22;1.30;;;14.90;99.90;;;;;;4993374;28;20050;-81
2021/10/11 12:43:14;;;;;;;5.85;1.30;;;15.00;99.90;;;;;;4993187;28;20049;-80
2021/10/11 12:45:40;;;;;;;12.52;1.38;;;15.40;99.90;;;;;;4977957;28;20048;-83
2021/10/11 12:48:06;;;;;;;7.25;1.33;;;15.70;99.90;;;;;;4993570;28;20038;-80